Time;durP1;ratioP1;P1;durP2;ratioP2;P2;SDS_P1;SDS_P2;PMS_P1;PMS_P2;Temp;Humidity;BMP_temperature;BMP_pressure;BME280_temperature;BME280_humidity;BME280_pressure;Samples;Min_cycle;Max_cycle;Signal;HPM_P1;HPM_P2
2022/09/26 00:01:07;;;;;;;18.93;17.13;;;;;;;10.67;100.00;96269.94;4973363;28;20557;-75
2022/09/26 00:03:33;;;;;;;19.37;17.30;;;;;;;10.59;100.00;96266.94;4973644;28;20184;-75
2022/09/26 00:06:04;;;;;;;20.40;18.37;;;;;;;10.55;100.00;96263.97;4973662;28;20196;-76
2022/09/26 00:08:29;;;;;;;19.50;17.37;;;;;;;10.54;100.00;96266.81;4973472;28;20228;-75
2022/09/26 00:10:57;;;;;;;22.70;20.43;;;;;;;10.62;100.00;96269.06;4971503;28;20193;-75
2022/09/26 00:13:22;;;;;;;24.17;21.93;;;;;;;10.61;100.00;96265.66;4973461;28;20208;-76
2022/09/26 00:15:48;;;;;;;24.50;22.30;;;;;;;10.66;100.00;96270.16;4973838;28;20255;-76
2022/09/26 00:18:13;;;;;;;23.93;21.83;;;;;;;10.63;100.00;96274.06;4973760;28;20185;-75
2022/09/26 00:20:38;;;;;;;25.40;23.27;;;;;;;10.52;100.00;96269.72;4973382;28;20649;-75
2022/09/26 00:23:04;;;;;;;24.40;22.07;;;;;;;10.54;100.00;96261.59;4973725;28;20247;-75
2022/09/26 00:25:29;;;;;;;25.30;23.00;;;;;;;10.36;100.00;96260.03;4974017;28;20744;-76
2022/09/26 00:27:55;;;;;;;25.10;22.80;;;;;;;10.47;100.00;96266.22;4956305;28;20191;-75
2022/09/26 00:30:20;;;;;;;25.40;23.20;;;;;;;10.34;100.00;96257.63;4973117;28;20276;-75
2022/09/26 00:32:45;;;;;;;23.27;21.10;;;;;;;10.43;100.00;96260.63;4973156;28;20304;-75
2022/09/26 00:35:10;;;;;;;24.87;21.13;;;;;;;10.39;100.00;96262.16;4975721;28;20223;-76
2022/09/26 00:37:36;;;;;;;22.50;20.50;;;;;;;10.35;100.00;96263.66;4977119;28;20225;-76
2022/09/26 00:40:01;;;;;;;25.23;20.23;;;;;;;10.40;100.00;96261.13;4977332;28;20231;-76
2022/09/26 00:42:27;;;;;;;23.60;20.30;;;;;;;10.39;100.00;96260.31;4976788;28;20197;-75
2022/09/26 00:44:55;;;;;;;23.00;20.70;;;;;;;10.39;100.00;96251.66;4977880;28;20521;-75
2022/09/26 00:47:35;;;;;;;20.30;18.43;;;;;;;10.46;100.00;96257.56;4978725;28;20220;-76
2022/09/26 00:50:23;;;;;;;23.23;19.37;;;;;;;10.36;100.00;96263.44;4980742;28;20184;-76
2022/09/26 00:53:12;;;;;;;20.40;18.27;;;;;;;10.41;100.00;96258.28;4977333;28;20176;-75
2022/09/26 00:55:40;;;;;;;19.50;17.70;;;;;;;10.29;100.00;96254.94;4963814;28;20288;-76
2022/09/26 00:58:15;;;;;;;19.73;17.83;;;;;;;10.18;100.00;96249.75;4977034;28;20274;-74
2022/09/26 01:00:42;;;;;;;24.93;20.50;;;;;;;10.15;100.00;96258.84;4976538;28;20242;-74
2022/09/26 01:03:08;;;;;;;21.23;19.33;;;;;;;10.09;100.00;96251.94;4959178;28;20185;-75
2022/09/26 01:05:34;;;;;;;22.50;20.20;;;;;;;10.04;100.00;96262.31;4976477;28;20173;-74
2022/09/26 01:08:01;;;;;;;23.13;20.83;;;;;;;9.98;100.00;96260.63;4976655;28;20193;-75
2022/09/26 01:10:28;;;;;;;22.30;20.10;;;;;;;9.96;100.00;96247.81;4976042;28;20188;-76
2022/09/26 01:12:56;;;;;;;21.90;19.53;;;;;;;10.02;100.00;96256.53;4976144;28;20208;-75
2022/09/26 01:15:21;;;;;;;21.17;18.97;;;;;;;9.99;100.00;96241.28;4976611;28;20672;-75
2022/09/26 01:17:47;;;;;;;22.67;18.27;;;;;;;9.96;100.00;96239.16;4975165;28;20264;-75
2022/09/26 01:20:12;;;;;;;21.97;19.13;;;;;;;9.93;100.00;96235.16;4976120;28;20339;-75
2022/09/26 01:23:05;;;;;;;19.73;17.90;;;;;;;10.00;100.00;96232.41;4976619;28;20547;-75
2022/09/26 01:25:39;;;;;;;19.73;17.73;;;;;;;9.79;100.00;96230.47;4973839;28;20189;-75
2022/09/26 01:28:16;;;;;;;22.00;19.67;;;;;;;9.74;100.00;96241.66;4976293;28;20584;-75
2022/09/26 01:30:50;;;;;;;26.30;19.07;;;;;;;9.76;100.00;96238.78;4975880;28;20230;-75
2022/09/26 01:33:22;;;;;;;21.07;18.73;;;;;;;9.78;100.00;96239.34;4975947;28;20304;-75
2022/09/26 01:36:25;;;;;;;21.33;19.07;;;;;;;9.81;100.00;96242.28;4976182;28;20192;-75
2022/09/26 01:39:25;;;;;;;23.90;18.47;;;;;;;9.64;100.00;96244.06;4958505;28;20575;-73
2022/09/26 01:42:19;;;;;;;20.07;17.60;;;;;;;9.66;100.00;96241.22;4958253;28;20197;-73
2022/09/26 01:45:13;;;;;;;20.07;17.97;;;;;;;9.53;100.00;96243.06;4975890;28;20642;-73
2022/09/26 01:47:50;;;;;;;22.17;17.03;;;;;;;9.46;100.00;96250.28;4975255;28;20204;-73
2022/09/26 01:50:42;;;;;;;19.80;17.70;;;;;;;9.52;100.00;96245.94;4975794;28;20191;-73
2022/09/26 01:53:48;;;;;;;25.03;19.10;;;;;;;9.46;100.00;96244.25;4975627;28;20188;-73
2022/09/26 01:56:21;;;;;;;21.80;17.77;;;;;;;9.58;100.00;96245.78;4951341;28;20266;-73
2022/09/26 01:58:55;;;;;;;20.77;18.33;;;;;;;9.57;100.00;96248.66;4975561;28;20255;-73
2022/09/26 02:01:24;;;;;;;21.70;16.83;;;;;;;9.54;100.00;96252.50;4975414;28;20630;-73
2022/09/26 02:03:53;;;;;;;20.47;18.27;;;;;;;9.63;100.00;96246.94;4975644;28;20196;-73
2022/09/26 02:06:33;;;;;;;21.77;19.40;;;;;;;9.59;100.00;96241.34;4975656;28;20192;-73
2022/09/26 02:09:06;;;;;;;22.37;20.03;;;;;;;9.66;100.00;96239.41;4975304;28;20180;-73
2022/09/26 02:11:32;;;;;;;23.83;20.57;;;;;;;9.63;100.00;96246.94;4974959;28;20193;-74
2022/09/26 02:14:10;;;;;;;22.83;19.50;;;;;;;9.62;100.00;96240.91;4974843;28;20730;-73
2022/09/26 02:16:53;;;;;;;21.17;18.70;;;;;;;9.69;100.00;96235.53;4975120;28;20231;-73
2022/09/26 02:19:25;;;;;;;20.23;17.07;;;;;;;9.66;100.00;96234.16;4961222;28;20208;-73
2022/09/26 02:21:51;;;;;;;18.53;16.53;;;;;;;9.74;100.00;96225.94;4975383;28;20185;-73
2022/09/26 02:24:17;;;;;;;21.60;16.33;;;;;;;9.90;100.00;96225.19;4975405;28;20196;-73
2022/09/26 02:26:42;;;;;;;20.67;18.53;;;;;;;9.81;100.00;96223.16;4974597;28;20192;-73
2022/09/26 02:29:11;;;;;;;18.83;16.90;;;;;;;9.72;100.00;96229.81;4959234;28;20275;-73
2022/09/26 02:31:45;;;;;;;18.30;16.50;;;;;;;9.76;100.00;96223.06;4974902;28;20303;-74
2022/09/26 02:34:10;;;;;;;21.10;19.20;;;;;;;9.77;100.00;96222.06;4974490;28;20177;-73
2022/09/26 02:36:37;;;;;;;22.73;20.10;;;;;;;9.75;100.00;96216.28;4957742;28;20272;-74
2022/09/26 02:39:02;;;;;;;18.90;17.17;;;;;;;9.83;100.00;96219.28;4974470;28;20565;-73
2022/09/26 02:41:47;;;;;;;21.93;20.13;;;;;;;9.85;100.00;96216.44;4957445;28;20196;-75
2022/09/26 02:44:32;;;;;;;20.43;18.63;;;;;;;9.73;100.00;96213.09;4974656;28;20181;-73
2022/09/26 02:47:32;;;;;;;21.73;19.80;;;;;;;9.73;100.00;96216.50;4975027;28;20185;-75
2022/09/26 02:50:09;;;;;;;44.40;41.42;;;;;;;9.71;100.00;96204.66;4973569;28;20508;-74
2022/09/26 02:52:53;;;;;;;24.00;22.27;;;;;;;9.71;100.00;96204.66;4975100;28;20543;-74
2022/09/26 02:55:21;;;;;;;16.57;15.03;;;;;;;9.81;100.00;96205.63;4974582;28;20187;-74
2022/09/26 02:57:46;;;;;;;12.53;11.33;;;;;;;9.83;100.00;96206.22;4974523;28;20209;-74
2022/09/26 03:00:23;;;;;;;12.47;11.33;;;;;;;9.96;100.00;96194.66;4974365;28;20236;-73
2022/09/26 03:03:06;;;;;;;11.87;10.90;;;;;;;9.85;100.00;96200.75;4974544;28;20688;-74
2022/09/26 03:05:35;;;;;;;11.97;10.83;;;;;;;9.95;100.00;96200.91;4974583;28;20173;-74
2022/09/26 03:08:10;;;;;;;11.80;10.90;;;;;;;9.82;100.00;96194.16;4974518;28;20196;-75
2022/09/26 03:10:36;;;;;;;12.50;10.93;;;;;;;9.97;100.00;96193.63;4973797;28;20499;-74
2022/09/26 03:13:06;;;;;;;12.70;11.50;;;;;;;9.92;100.00;96183.84;4973786;28;20192;-74
2022/09/26 03:15:35;;;;;;;13.47;12.47;;;;;;;9.94;100.00;96176.56;4974258;28;20652;-74
2022/09/26 03:18:02;;;;;;;14.60;13.40;;;;;;;9.90;100.00;96172.03;4974257;28;20185;-74
2022/09/26 03:20:28;;;;;;;16.40;15.17;;;;;;;9.94;100.00;96173.94;4957082;28;20231;-74
2022/09/26 03:22:54;;;;;;;19.97;18.23;;;;;;;9.91;100.00;96169.19;4974066;28;20653;-74
2022/09/26 03:25:23;;;;;;;17.27;15.67;;;;;;;10.01;100.00;96171.16;4974308;28;20185;-74
2022/09/26 03:27:49;;;;;;;16.63;15.33;;;;;;;9.98;100.00;96169.00;4973887;28;20185;-74
2022/09/26 03:30:16;;;;;;;17.27;16.00;;;;;;;9.92;100.00;96165.50;4973896;28;20231;-75
2022/09/26 03:32:41;;;;;;;17.83;16.53;;;;;;;9.90;100.00;96158.94;4973829;28;20287;-75
2022/09/26 03:35:08;;;;;;;19.47;18.07;;;;;;;9.99;100.00;96153.06;4973949;28;20181;-75
2022/09/26 03:37:36;;;;;;;17.27;16.13;;;;;;;9.95;100.00;96159.03;4973951;28;20189;-75
2022/09/26 03:40:08;;;;;;;16.20;14.87;;;;;;;9.91;100.00;96156.09;4973934;28;20699;-75
2022/09/26 03:42:34;;;;;;;13.03;11.83;;;;;;;9.83;100.00;96151.25;4973918;28;20188;-73
2022/09/26 03:45:00;;;;;;;9.93;9.13;;;;;;;9.86;100.00;96150.00;4973715;28;20575;-75
2022/09/26 03:47:26;;;;;;;11.13;10.13;;;;;;;9.78;100.00;96148.53;4973958;28;20189;-74
2022/09/26 03:49:52;;;;;;;11.80;10.90;;;;;;;9.83;100.00;96142.59;4973754;28;20196;-74
2022/09/26 03:52:17;;;;;;;10.80;9.90;;;;;;;9.77;100.00;96143.53;4973802;28;20558;-75
2022/09/26 03:54:43;;;;;;;11.90;10.73;;;;;;;9.87;100.00;96143.69;4974052;28;20184;-74
2022/09/26 03:57:13;;;;;;;10.60;9.80;;;;;;;9.81;100.00;96142.03;4973799;28;20183;-74
2022/09/26 03:59:39;;;;;;;10.83;9.83;;;;;;;9.92;100.00;96138.53;4973771;28;20200;-75
2022/09/26 04:02:04;;;;;;;10.83;9.97;;;;;;;9.82;100.00;96133.94;4956247;28;20223;-73
2022/09/26 04:04:31;;;;;;;11.50;10.50;;;;;;;9.85;100.00;96130.06;4973794;28;20201;-74
2022/09/26 04:06:57;;;;;;;10.50;9.70;;;;;;;9.79;100.00;96131.81;4973650;28;20184;-74
2022/09/26 04:09:23;;;;;;;14.07;12.87;;;;;;;9.93;100.00;96130.47;4973543;28;20195;-74
2022/09/26 04:11:49;;;;;;;16.47;15.23;;;;;;;9.84;100.00;96124.03;4976886;28;20180;-74
2022/09/26 04:14:14;;;;;;;16.10;14.70;;;;;;;9.73;100.00;96122.31;4977367;28;20612;-74
2022/09/26 04:16:40;;;;;;;15.70;14.40;;;;;;;9.67;100.00;96114.59;4960056;28;20268;-74
2022/09/26 04:19:05;;;;;;;14.63;13.03;;;;;;;9.54;100.00;96113.06;4977496;28;20291;-74
2022/09/26 04:21:33;;;;;;;14.23;12.90;;;;;;;9.69;100.00;96115.97;4960036;28;20324;-74
2022/09/26 04:23:58;;;;;;;14.33;12.97;;;;;;;9.63;100.00;96113.50;4977324;28;20196;-75
2022/09/26 04:26:24;;;;;;;14.60;13.23;;;;;;;9.62;100.00;96104.84;4977209;28;20189;-74
2022/09/26 04:28:50;;;;;;;13.63;12.33;;;;;;;9.67;100.00;96098.91;4977335;28;20200;-74
2022/09/26 04:31:16;;;;;;;13.47;12.13;;;;;;;9.63;100.00;96098.59;4977435;28;20268;-76
2022/09/26 04:33:42;;;;;;;11.97;10.97;;;;;;;9.77;100.00;96092.00;4976838;28;20681;-75
2022/09/26 04:36:10;;;;;;;16.17;14.83;;;;;;;9.63;100.00;96088.13;4977309;28;20734;-74
2022/09/26 04:38:36;;;;;;;13.77;12.53;;;;;;;9.60;100.00;96089.38;4977147;28;20614;-74
2022/09/26 04:41:07;;;;;;;10.63;9.77;;;;;;;9.63;100.00;96080.28;4977366;28;20196;-74
2022/09/26 04:43:33;;;;;;;11.30;10.50;;;;;;;9.70;100.00;96074.84;4976884;28;20192;-74
2022/09/26 04:45:59;;;;;;;13.67;12.67;;;;;;;9.51;100.00;96082.16;4976765;28;20654;-74
2022/09/26 04:48:25;;;;;;;13.73;12.57;;;;;;;9.53;100.00;96083.50;4977010;28;20235;-75
2022/09/26 04:50:50;;;;;;;12.33;11.30;;;;;;;9.57;100.00;96083.84;4977122;28;20673;-75
2022/09/26 04:53:16;;;;;;;13.03;12.03;;;;;;;9.54;100.00;96089.53;4976851;28;20189;-76
2022/09/26 04:55:44;;;;;;;14.20;13.00;;;;;;;9.50;100.00;96086.59;4976843;28;20189;-74
2022/09/26 04:58:10;;;;;;;14.20;13.00;;;;;;;9.32;100.00;96081.56;4977149;28;20196;-74
2022/09/26 05:00:35;;;;;;;13.63;12.57;;;;;;;9.26;100.00;96081.72;4976898;28;20220;-75
2022/09/26 05:03:00;;;;;;;14.87;13.60;;;;;;;9.16;100.00;96079.72;4976091;28;20676;-75
2022/09/26 05:05:30;;;;;;;15.10;13.70;;;;;;;9.14;100.00;96082.56;4976669;28;20188;-75
2022/09/26 05:07:56;;;;;;;17.53;15.60;;;;;;;9.05;100.00;96075.34;4976398;28;20354;-76
2022/09/26 05:10:21;;;;;;;16.07;14.67;;;;;;;9.04;100.00;96077.16;4975924;28;20228;-75
2022/09/26 05:12:47;;;;;;;15.10;13.73;;;;;;;9.06;100.00;96079.56;4976324;28;20323;-75
2022/09/26 05:15:12;;;;;;;17.73;12.53;;;;;;;9.00;100.00;96086.50;4976297;28;20239;-75
2022/09/26 05:17:38;;;;;;;13.50;12.30;;;;;;;9.00;100.00;96088.31;4976570;28;20192;-76
2022/09/26 05:20:08;;;;;;;14.67;13.27;;;;;;;8.96;100.00;96081.97;4976235;28;20563;-76
2022/09/26 05:22:35;;;;;;;14.00;12.60;;;;;;;9.04;100.00;96077.16;4975398;28;20544;-75
2022/09/26 05:27:45;;;;;;;14.83;13.57;;;;;;;9.15;100.00;96071.09;4976032;28;20191;-74
2022/09/26 05:30:11;;;;;;;16.87;15.50;;;;;;;9.18;100.00;96085.53;4975875;28;20185;-74
2022/09/26 05:32:38;;;;;;;16.03;14.63;;;;;;;9.19;100.00;96082.66;4975524;28;20221;-73
2022/09/26 05:35:04;;;;;;;16.03;14.53;;;;;;;9.22;100.00;96076.19;4976121;28;20219;-73
2022/09/26 05:37:29;;;;;;;15.00;13.53;;;;;;;9.24;100.00;96075.94;4960184;28;20184;-74
2022/09/26 05:42:39;;;;;;;15.13;13.83;;;;;;;9.08;100.00;96073.03;4976030;28;20658;-74
2022/09/26 05:45:05;;;;;;;14.07;13.00;;;;;;;9.13;100.00;96064.53;4958370;28;20193;-74
2022/09/26 05:47:35;;;;;;;19.17;12.47;;;;;;;9.23;100.00;96069.94;4975369;28;20279;-73
2022/09/26 05:50:03;;;;;;;11.30;10.30;;;;;;;9.18;100.00;96065.41;4976003;28;20199;-73
2022/09/26 05:52:29;;;;;;;9.77;8.77;;;;;;;9.16;100.00;96066.66;4975642;28;20224;-74
2022/09/26 05:54:55;;;;;;;10.70;9.40;;;;;;;9.26;100.00;96069.44;4976065;28;20241;-75
2022/09/26 05:57:20;;;;;;;11.87;10.90;;;;;;;9.42;100.00;96062.63;4975945;28;20518;-75
2022/09/26 05:59:45;;;;;;;13.77;12.47;;;;;;;9.33;100.00;96058.84;4975800;28;20544;-73
2022/09/26 06:02:11;;;;;;;12.00;11.00;;;;;;;9.28;100.00;96056.13;4975672;28;20567;-74
2022/09/26 06:04:36;;;;;;;10.67;9.77;;;;;;;9.43;100.00;96061.63;4975140;28;20189;-74
2022/09/26 06:07:02;;;;;;;11.43;10.53;;;;;;;9.78;100.00;96058.78;4975665;28;20180;-74
2022/09/26 06:09:27;;;;;;;12.90;11.73;;;;;;;9.83;100.00;96062.25;4974747;28;20200;-74
2022/09/26 06:11:52;;;;;;;9.63;8.83;;;;;;;10.00;100.00;96059.63;4974978;28;20185;-73
2022/09/26 06:14:18;;;;;;;13.07;11.77;;;;;;;10.07;100.00;96056.84;4958058;28;20581;-73
2022/09/26 06:16:43;;;;;;;15.67;14.37;;;;;;;9.95;100.00;96056.94;4974069;28;20657;-73
2022/09/26 06:19:08;;;;;;;14.53;9.80;;;;;;;9.96;100.00;96059.31;4975192;28;20208;-74
2022/09/26 06:21:34;;;;;;;18.93;17.57;;;;;;;9.94;100.00;96052.72;4975553;28;20223;-74
2022/09/26 06:23:59;;;;;;;17.93;16.43;;;;;;;10.34;100.00;96048.06;4974971;28;20192;-73
2022/09/26 06:26:27;;;;;;;14.60;13.50;;;;;;;11.33;100.00;96050.44;4975061;28;20653;-75
2022/09/26 06:28:58;;;;;;;12.70;11.60;;;;;;;11.94;100.00;96043.88;4975566;28;20542;-76
2022/09/26 06:31:24;;;;;;;16.93;15.73;;;;;;;11.97;100.00;96038.13;4975218;28;20193;-73
2022/09/26 06:33:54;;;;;;;13.10;12.10;;;;;;;12.03;100.00;96046.81;4974292;28;20207;-75
2022/09/26 06:36:21;;;;;;;9.20;8.47;;;;;;;11.70;100.00;96040.00;4974586;28;20184;-74
2022/09/26 06:38:47;;;;;;;13.90;12.93;;;;;;;11.67;100.00;96045.75;4974253;28;20219;-73
2022/09/26 06:41:13;;;;;;;10.40;9.50;;;;;;;11.72;100.00;96034.47;4974661;28;20278;-74
2022/09/26 06:43:39;;;;;;;8.30;7.70;;;;;;;11.56;100.00;96031.75;4974800;28;20267;-74
2022/09/26 06:46:08;;;;;;;8.80;7.93;;;;;;;11.39;100.00;96025.84;4975056;28;20320;-73
2022/09/26 06:48:35;;;;;;;8.07;7.47;;;;;;;11.52;100.00;96029.88;4974005;28;20208;-74
2022/09/26 06:51:00;;;;;;;8.50;7.90;;;;;;;11.33;100.00;96039.16;4974551;28;20181;-75
2022/09/26 06:53:27;;;;;;;8.47;7.67;;;;;;;11.17;100.00;96033.00;4974447;28;20188;-74
2022/09/26 06:55:52;;;;;;;8.27;7.67;;;;;;;11.44;100.00;96031.13;4974170;28;20187;-74
2022/09/26 06:58:17;;;;;;;8.47;7.60;;;;;;;11.29;100.00;96025.75;4974477;28;20568;-74
2022/09/26 07:00:43;;;;;;;9.13;8.40;;;;;;;11.08;100.00;96021.38;4975267;28;20188;-75
2022/09/26 07:03:08;;;;;;;8.60;7.93;;;;;;;11.39;100.00;96019.81;4957213;28;20196;-75
2022/09/26 07:05:34;;;;;;;8.93;8.10;;;;;;;11.39;100.00;96020.59;4974131;28;20195;-75
2022/09/26 07:08:00;;;;;;;8.60;7.80;;;;;;;11.45;100.00;96016.19;4973975;28;20268;-74
2022/09/26 07:10:29;;;;;;;8.83;8.23;;;;;;;11.30;100.00;96016.06;4973524;28;20237;-75
2022/09/26 07:13:01;;;;;;;9.93;8.03;;;;;;;11.41;100.00;96018.53;4974432;28;20193;-75
2022/09/26 07:15:29;;;;;;;9.10;8.40;;;;;;;11.63;100.00;96024.47;4973928;28;20196;-75
2022/09/26 07:17:56;;;;;;;9.03;8.30;;;;;;;12.00;100.00;96021.84;4974009;28;20215;-75
2022/09/26 07:20:22;;;;;;;7.63;7.03;;;;;;;12.22;100.00;96031.41;4973951;28;20205;-75
2022/09/26 07:22:47;;;;;;;9.00;8.03;;;;;;;12.54;100.00;96028.69;4973627;28;20724;-74
2022/09/26 07:25:13;;;;;;;11.80;10.90;;;;;;;12.56;100.00;96021.31;4974227;28;20319;-75
2022/09/26 07:27:39;;;;;;;11.80;11.10;;;;;;;12.79;100.00;96019.03;4973838;28;20185;-75
2022/09/26 07:30:07;;;;;;;13.13;12.30;;;;;;;12.93;100.00;96021.19;4974142;28;20200;-74
2022/09/26 07:32:35;;;;;;;13.07;12.20;;;;;;;12.96;100.00;96018.03;4973219;28;20254;-75
2022/09/26 07:35:03;;;;;;;12.03;11.27;;;;;;;12.66;100.00;96010.84;4974150;28;20188;-75
2022/09/26 07:37:30;;;;;;;15.10;14.33;;;;;;;12.43;100.00;96020.75;4973737;28;20331;-75
2022/09/26 07:39:55;;;;;;;18.83;17.73;;;;;;;12.56;100.00;96019.47;4956994;28;20207;-75
2022/09/26 07:42:20;;;;;;;16.87;15.90;;;;;;;12.43;100.00;96014.69;4973794;28;20196;-74
2022/09/26 07:44:46;;;;;;;13.47;12.37;;;;;;;12.55;100.00;96010.00;4973450;28;20188;-75
2022/09/26 07:50:15;;;;;;;13.03;12.30;;;;;;;12.53;100.00;96014.75;4974569;28;20188;-75
2022/09/26 07:52:43;;;;;;;13.40;12.50;;;;;;;12.71;100.00;96010.84;4973941;28;20173;-75
2022/09/26 07:55:10;;;;;;;10.00;9.37;;;;;;;12.71;100.00;96000.31;4973709;28;20653;-75
2022/09/26 07:57:36;;;;;;;13.37;12.57;;;;;;;12.76;100.00;96003.75;4973355;28;20195;-75
2022/09/26 08:00:06;;;;;;;13.57;12.70;;;;;;;12.37;100.00;96006.00;4974051;28;20200;-75
2022/09/26 08:02:34;;;;;;;12.07;11.20;;;;;;;12.62;100.00;96002.69;4973312;28;20559;-75
2022/09/26 08:05:02;;;;;;;16.27;14.77;;;;;;;12.86;100.00;95997.75;4973803;28;20212;-74
2022/09/26 08:07:28;;;;;;;19.97;18.77;;;;;;;12.96;100.00;95995.16;4973504;28;20540;-73
2022/09/26 08:09:54;;;;;;;18.93;17.93;;;;;;;12.80;100.00;95988.28;4972506;28;20204;-74
2022/09/26 08:12:19;;;;;;;14.47;13.50;;;;;;;12.73;100.00;95985.09;4973834;28;20195;-73
2022/09/26 08:14:48;;;;;;;12.60;11.90;;;;;;;13.22;99.25;95985.47;4973628;28;20272;-73
2022/09/26 08:17:16;;;;;;;10.63;9.93;;;;;;;13.00;100.00;95984.88;4973026;28;20724;-73
2022/09/26 08:19:42;;;;;;;10.83;10.23;;;;;;;12.81;100.00;95982.75;4973773;28;20212;-73
2022/09/26 08:22:08;;;;;;;17.23;16.23;;;;;;;13.08;100.00;95971.22;4956492;28;20192;-73
2022/09/26 08:24:33;;;;;;;15.50;14.47;;;;;;;13.18;99.46;95974.69;4973417;28;20192;-74
2022/09/26 08:26:59;;;;;;;11.77;10.83;;;;;;;13.15;99.24;95967.28;4973858;28;20192;-73
2022/09/26 08:29:24;;;;;;;9.87;9.13;;;;;;;13.24;100.00;95970.22;4973718;28;20188;-73
2022/09/26 08:31:50;;;;;;;14.80;13.97;;;;;;;13.21;98.36;95966.25;4973088;28;20278;-74
2022/09/26 08:34:16;;;;;;;20.43;19.20;;;;;;;13.29;96.03;95971.00;4973380;28;20553;-73
2022/09/26 08:36:41;;;;;;;22.47;21.10;;;;;;;13.46;95.39;95969.94;4973710;28;20307;-73
2022/09/26 08:39:08;;;;;;;20.60;19.43;;;;;;;13.61;94.64;95962.81;4973579;28;20245;-73
2022/09/26 08:41:43;;;;;;;23.60;22.20;;;;;;;13.75;94.92;95968.34;4975174;28;20181;-73
2022/09/26 08:44:46;;;;;;;20.20;18.83;;;;;;;13.59;94.94;95959.66;4974534;28;20214;-74
2022/09/26 08:47:28;;;;;;;15.60;14.37;;;;;;;13.76;90.85;95966.50;4969673;28;20204;-75
2022/09/26 08:50:13;;;;;;;15.43;14.20;;;;;;;13.84;90.67;95965.94;4974732;28;20654;-75
2022/09/26 08:52:50;;;;;;;16.63;15.63;;;;;;;14.32;88.37;95967.13;4974072;28;20169;-75
2022/09/26 08:55:26;;;;;;;16.10;15.07;;;;;;;14.59;86.40;95970.19;4973795;28;20173;-76
2022/09/26 08:57:58;;;;;;;13.57;12.37;;;;;;;14.47;84.54;95967.88;4962224;28;20173;-75
2022/09/26 09:00:31;;;;;;;12.77;11.57;;;;;;;14.64;83.72;95974.66;4976785;28;20225;-73
2022/09/26 09:03:02;;;;;;;11.97;11.10;;;;;;;14.59;83.96;95977.31;4976850;28;20197;-74
2022/09/26 09:05:31;;;;;;;12.93;12.13;;;;;;;14.28;85.26;95968.69;4976725;28;20196;-75
2022/09/26 09:08:00;;;;;;;11.37;10.47;;;;;;;14.47;85.69;95977.63;4975952;28;20185;-75
2022/09/26 09:10:56;;;;;;;19.43;18.20;;;;;;;14.08;86.07;95973.00;4975341;28;20197;-74
2022/09/26 09:13:30;;;;;;;9.90;9.30;;;;;;;13.82;85.74;95974.09;4973304;28;20196;-74
2022/09/26 09:16:25;;;;;;;11.03;10.13;;;;;;;13.90;83.88;95962.22;4976606;28;20570;-75
2022/09/26 09:19:01;;;;;;;14.00;13.07;;;;;;;13.99;83.69;95957.97;4976740;28;20207;-75
2022/09/26 09:21:32;;;;;;;10.20;9.40;;;;;;;13.95;83.21;95957.75;4976549;28;20215;-75
2022/09/26 09:24:05;;;;;;;11.73;11.10;;;;;;;13.72;83.59;95966.22;4976596;28;20181;-76
2022/09/26 09:26:54;;;;;;;24.40;22.53;;;;;;;13.73;84.35;95957.25;4976531;28;20185;-75
2022/09/26 09:29:40;;;;;;;9.77;9.17;;;;;;;13.67;86.34;95945.94;4956993;29;20191;-74
2022/09/26 09:32:11;;;;;;;8.97;7.70;;;;;;;13.80;87.50;95949.09;4966851;28;20232;-75
2022/09/26 09:34:43;;;;;;;8.77;8.23;;;;;;;14.09;85.90;95942.97;4976267;28;20212;-75
2022/09/26 09:37:18;;;;;;;11.40;10.57;;;;;;;14.29;82.64;95944.72;4975799;28;20196;-74
2022/09/26 09:39:45;;;;;;;8.93;8.43;;;;;;;14.30;81.21;95948.94;4958879;28;20200;-74
2022/09/26 09:42:29;;;;;;;15.43;14.50;;;;;;;13.90;80.51;95943.78;4975869;28;20247;-75
2022/09/26 09:45:00;;;;;;;9.10;8.03;;;;;;;13.87;82.98;95942.50;4976055;28;20216;-76
2022/09/26 09:47:28;;;;;;;10.90;10.17;;;;;;;13.83;82.36;95940.63;4974861;28;20251;-75
2022/09/26 09:49:55;;;;;;;7.27;6.73;;;;;;;14.29;78.88;95936.00;4975905;28;20192;-75
2022/09/26 09:52:45;;;;;;;8.90;8.30;;;;;;;14.29;79.98;95942.06;4975466;28;20271;-75
2022/09/26 09:55:40;;;;;;;44.97;42.43;;;;;;;14.41;76.71;95925.97;4975548;28;20212;-74
2022/09/26 09:58:26;;;;;;;53.50;50.20;;;;;;;14.62;77.81;95916.88;4975420;28;20173;-74
2022/09/26 10:01:11;;;;;;;44.53;42.13;;;;;;;14.72;76.07;95911.53;4975917;28;20229;-74
2022/09/26 10:03:47;;;;;;;38.17;35.93;;;;;;;14.89;75.93;95909.31;4975819;28;20193;-75
2022/09/26 10:06:13;;;;;;;32.30;30.33;;;;;;;15.05;73.91;95906.56;4975516;28;20204;-74
2022/09/26 10:08:40;;;;;;;25.07;23.60;;;;;;;15.35;73.46;95906.31;4973793;28;20282;-74
2022/09/26 10:11:28;;;;;;;39.23;37.00;;;;;;;15.42;72.33;95906.00;4975933;28;20180;-74
2022/09/26 10:13:58;;;;;;;28.53;26.97;;;;;;;15.52;73.08;95913.84;4975314;28;21052;-75
2022/09/26 10:16:25;;;;;;;30.63;28.97;;;;;;;15.53;69.25;95899.59;4975003;28;20177;-75
2022/09/26 10:18:54;;;;;;;32.63;30.73;;;;;;;15.64;69.75;95899.22;4974904;28;20213;-75
2022/09/26 10:21:32;;;;;;;10.47;9.87;;;;;;;15.40;68.92;95895.69;4958446;28;20197;-75
2022/09/26 10:24:00;;;;;;;17.73;16.80;;;;;;;15.48;68.85;95894.31;4975303;28;20172;-75
2022/09/26 10:26:33;;;;;;;24.07;22.80;;;;;;;15.34;69.86;95892.31;4975411;28;20271;-75
2022/09/26 10:29:05;;;;;;;25.57;24.13;;;;;;;15.22;69.99;95878.69;4974991;28;20188;-75
2022/09/26 10:31:39;;;;;;;39.13;37.13;;;;;;;15.25;69.86;95887.94;4974938;28;20197;-74
2022/09/26 10:34:20;;;;;;;99.73;94.23;;;;;;;15.27;70.02;95891.84;4974383;28;20276;-74
2022/09/26 10:36:45;;;;;;;52.30;49.40;;;;;;;15.64;68.99;95880.72;4974637;28;20228;-74
2022/09/26 10:41:59;;;;;;;153.17;145.13;;;;;;;16.04;64.83;95874.19;4974545;28;20267;-74
2022/09/26 10:44:32;;;;;;;121.60;115.23;;;;;;;16.19;63.93;95874.00;4974801;28;20634;-74
2022/09/26 10:47:07;;;;;;;141.73;133.97;;;;;;;16.14;63.45;95871.41;4974747;28;20626;-74
2022/09/26 10:49:50;;;;;;;212.13;200.47;;;;;;;16.58;62.66;95868.44;4974896;28;20212;-74
2022/09/26 10:52:22;;;;;;;105.93;100.13;;;;;;;16.16;62.51;95865.84;4974201;28;20169;-74
2022/09/26 10:55:10;;;;;;;42.63;40.47;;;;;;;16.19;60.87;95866.06;4975038;28;20177;-74
2022/09/26 10:57:44;;;;;;;31.73;29.67;;;;;;;16.09;59.91;95860.09;4973984;28;20243;-74
2022/09/26 11:00:17;;;;;;;28.37;26.77;;;;;;;16.25;59.71;95856.19;4974632;28;20785;-74
2022/09/26 11:02:45;;;;;;;27.97;26.43;;;;;;;15.88;62.42;95850.88;4974636;28;20288;-75
2022/09/26 11:08:03;;;;;;;23.48;22.27;;;;;;;15.97;62.14;95854.44;4959129;28;20336;-74
2022/09/26 11:10:35;;;;;;;16.07;15.20;;;;;;;16.63;59.50;95836.63;4974870;28;20199;-75
2022/09/26 11:13:20;;;;;;;15.20;14.40;;;;;;;16.94;59.27;95839.56;4974259;28;20335;-76
2022/09/26 11:15:59;;;;;;;24.00;22.60;;;;;;;16.88;56.89;95842.63;4973249;28;20192;-76
2022/09/26 11:18:51;;;;;;;19.87;18.70;;;;;;;16.73;56.77;95825.09;4973792;28;20172;-75
2022/09/26 11:21:40;;;;;;;21.60;20.52;;;;;;;16.79;54.92;95821.28;4929701;28;20200;-76
2022/09/26 11:24:23;;;;;;;19.15;18.10;;;;;;;16.96;56.17;95818.13;4974572;28;20167;-75
2022/09/26 11:27:21;;;;;;;16.05;15.15;;;;;;;17.20;54.30;95812.69;4966523;28;20214;-75
2022/09/26 11:30:08;;;;;;;18.77;7.72;;;;;;;17.22;53.93;95810.53;4965780;28;20197;-75
2022/09/26 11:32:42;;;;;;;6.80;6.38;;;;;;;16.88;55.00;95811.63;4971248;28;20232;-74
2022/09/26 11:35:32;;;;;;;7.50;6.93;;;;;;;16.98;54.40;95808.03;4974217;28;20223;-73
2022/09/26 11:38:04;;;;;;;5.30;4.95;;;;;;;16.24;55.69;95801.72;4974125;28;20180;-74
2022/09/26 11:40:44;;;;;;;11.30;9.27;;;;;;;16.10;57.01;95799.03;4974014;28;20204;-75
2022/09/26 11:43:57;;;;;;;24.33;23.07;;;;;;;15.75;57.99;95810.06;4974074;28;20652;-75
2022/09/26 11:46:46;;;;;;;16.50;15.30;;;;;;;15.37;58.48;95807.28;4898632;29;20194;-76
2022/09/26 11:49:34;;;;;;;12.90;12.20;;;;;;;15.66;58.34;95806.47;4971362;28;20197;-76